createdAt,value
2019-02-23T00:00:13.367Z,15.20
2019-02-23T00:01:49.695Z,14.70
2019-02-23T00:03:24.159Z,17.15
2019-02-23T00:04:58.873Z,16.20
2019-02-23T00:06:33.556Z,17.57
2019-02-23T00:08:07.948Z,17.27
2019-02-23T00:09:42.667Z,21.97
2019-02-23T00:11:17.403Z,19.15
2019-02-23T00:12:52.035Z,22.17
2019-02-23T00:14:26.839Z,23.47
2019-02-23T00:16:01.474Z,20.17
2019-02-23T00:17:35.899Z,19.70
2019-02-23T00:19:10.302Z,18.50
2019-02-23T00:20:44.985Z,17.42
2019-02-23T00:22:19.730Z,18.67
2019-02-23T00:23:54.130Z,18.82
2019-02-23T00:25:28.504Z,18.10
2019-02-23T00:27:03.214Z,20.62
2019-02-23T00:28:38.006Z,18.95
2019-02-23T00:30:12.377Z,16.07
2019-02-23T00:31:46.765Z,20.08
2019-02-23T00:33:21.166Z,22.07
2019-02-23T00:34:55.574Z,20.62
2019-02-23T00:36:30.051Z,22.02
2019-02-23T00:38:04.504Z,21.57
2019-02-23T00:39:38.897Z,18.37
2019-02-23T00:41:13.367Z,20.88
2019-02-23T00:42:48.045Z,19.32
2019-02-23T00:44:22.450Z,18.73
2019-02-23T00:45:56.927Z,17.60
2019-02-23T00:47:31.405Z,16.60
2019-02-23T00:49:06.190Z,18.65
2019-02-23T00:50:40.583Z,16.12
2019-02-23T00:52:15.016Z,16.60
2019-02-23T00:53:49.726Z,17.82
2019-02-23T00:55:24.199Z,18.25
2019-02-23T00:56:58.570Z,17.82
2019-02-23T00:58:33.287Z,17.07
2019-02-23T01:00:09.339Z,16.27
2019-02-23T01:01:43.738Z,15.83
2019-02-23T01:03:18.675Z,16.00
2019-02-23T01:04:53.395Z,17.17
2019-02-23T01:06:27.894Z,18.55
2019-02-23T01:08:02.786Z,20.37
2019-02-23T01:09:37.153Z,17.67
2019-02-23T01:11:11.525Z,16.48
2019-02-23T01:12:46.640Z,19.10
2019-02-23T01:14:21.767Z,16.65
2019-02-23T01:15:58.434Z,17.32
2019-02-23T01:17:33.097Z,19.35
2019-02-23T01:19:07.911Z,18.07
2019-02-23T01:20:43.063Z,18.40
2019-02-23T01:22:18.139Z,19.15
2019-02-23T01:23:52.955Z,17.27
2019-02-23T01:25:27.762Z,18.48
2019-02-23T01:27:02.643Z,19.07
2019-02-23T01:28:37.739Z,17.52
2019-02-23T01:30:13.349Z,15.88
2019-02-23T01:31:48.467Z,22.20
2019-02-23T01:33:24.159Z,17.87
2019-02-23T01:34:58.950Z,16.95
2019-02-23T01:36:33.774Z,17.35
2019-02-23T01:38:08.640Z,18.15
2019-02-23T01:39:43.755Z,15.25
2019-02-23T01:41:18.635Z,18.12
2019-02-23T01:42:53.608Z,16.77
2019-02-23T01:44:28.434Z,20.75
2019-02-23T01:46:03.550Z,18.73
2019-02-23T01:47:38.442Z,17.07
2019-02-23T01:49:13.290Z,18.10
2019-02-23T01:50:48.729Z,18.57
2019-02-23T01:52:24.001Z,16.95
2019-02-23T01:54:03.658Z,16.67
2019-02-23T01:55:38.696Z,16.87
2019-02-23T01:57:13.793Z,18.15
2019-02-23T01:58:48.601Z,15.43
2019-02-23T02:00:24.163Z,16.65
2019-02-23T02:01:58.934Z,17.73
2019-02-23T02:03:34.071Z,16.32
2019-02-23T02:05:09.001Z,17.98
2019-02-23T02:06:43.770Z,20.20
2019-02-23T02:08:18.334Z,20.50
2019-02-23T02:09:53.214Z,16.10
2019-02-23T02:11:27.838Z,16.27
2019-02-23T02:13:02.850Z,18.27
2019-02-23T02:14:37.561Z,18.70
2019-02-23T02:16:12.219Z,18.10
2019-02-23T02:17:46.686Z,17.27
2019-02-23T02:19:21.060Z,18.23
2019-02-23T02:20:55.766Z,19.17
2019-02-23T02:22:30.479Z,15.93
2019-02-23T02:24:04.949Z,20.95
2019-02-23T02:25:39.654Z,17.23
2019-02-23T02:27:14.133Z,18.17
2019-02-23T02:28:48.533Z,17.62
2019-02-23T02:30:22.911Z,18.30
2019-02-23T02:31:57.611Z,17.85
2019-02-23T02:33:32.304Z,18.10
2019-02-23T02:35:07.072Z,23.50
2019-02-23T02:36:41.469Z,22.25
2019-02-23T02:38:15.938Z,22.35
2019-02-23T02:39:50.732Z,22.73
2019-02-23T02:41:25.530Z,20.80
2019-02-23T02:43:00.657Z,24.63
2019-02-23T02:44:35.478Z,22.20
2019-02-23T02:46:10.697Z,23.10
2019-02-23T02:47:45.491Z,22.07
2019-02-23T02:49:20.681Z,19.48
2019-02-23T02:50:55.525Z,18.32
2019-02-23T02:52:30.358Z,21.95
2019-02-23T02:54:06.146Z,17.30
2019-02-23T02:55:40.978Z,17.55
2019-02-23T02:57:16.123Z,17.75
2019-02-23T02:58:51.000Z,18.52
2019-02-23T03:00:25.864Z,16.00
2019-02-23T03:02:00.682Z,17.00
2019-02-23T03:03:35.511Z,17.40
2019-02-23T03:05:10.601Z,17.60
2019-02-23T03:06:45.952Z,17.73
2019-02-23T03:08:21.011Z,16.15
2019-02-23T03:09:55.817Z,16.50
2019-02-23T03:11:30.792Z,14.63
2019-02-23T03:13:06.095Z,19.40
2019-02-23T03:14:40.891Z,17.98
2019-02-23T03:16:16.370Z,13.85
2019-02-23T03:17:50.806Z,17.60
2019-02-23T03:19:25.169Z,17.42
2019-02-23T03:21:00.167Z,14.50
2019-02-23T03:22:34.887Z,14.03
2019-02-23T03:24:09.291Z,16.12
2019-02-23T03:25:44.029Z,15.55
2019-02-23T03:27:18.742Z,14.55
2019-02-23T03:28:53.133Z,15.18
2019-02-23T03:30:27.537Z,15.90
2019-02-23T03:32:01.969Z,15.72
2019-02-23T03:33:37.140Z,16.00
2019-02-23T03:35:11.521Z,19.48
2019-02-23T03:36:45.906Z,16.55
2019-02-23T03:38:20.863Z,16.65
2019-02-23T03:39:55.582Z,17.25
2019-02-23T03:41:30.138Z,16.77
2019-02-23T03:43:04.568Z,16.97
2019-02-23T03:44:39.239Z,17.02
2019-02-23T03:46:13.674Z,17.10
2019-02-23T03:47:48.386Z,15.90
2019-02-23T03:49:23.189Z,16.02
2019-02-23T03:50:58.043Z,16.40
2019-02-23T03:52:32.480Z,12.93
2019-02-23T03:54:06.875Z,17.35
2019-02-23T03:55:41.418Z,14.05
2019-02-23T03:57:16.303Z,15.88
2019-02-23T03:58:50.725Z,14.50
2019-02-23T04:00:25.391Z,16.45
2019-02-23T04:02:00.058Z,12.78
2019-02-23T04:03:34.688Z,17.85
2019-02-23T04:05:09.886Z,16.07
2019-02-23T04:06:44.712Z,13.72
2019-02-23T04:08:19.075Z,15.43
2019-02-23T04:09:54.460Z,15.23
2019-02-23T04:11:28.846Z,15.55
2019-02-23T04:13:03.208Z,13.88
2019-02-23T04:14:37.641Z,14.85
2019-02-23T04:16:12.323Z,15.70
2019-02-23T04:17:47.042Z,15.00
2019-02-23T04:19:21.757Z,15.78
2019-02-23T04:21:01.846Z,17.00
2019-02-23T04:22:33.131Z,12.85
2019-02-23T04:24:07.890Z,16.70
2019-02-23T04:25:42.343Z,15.68
2019-02-23T04:27:16.714Z,16.67
2019-02-23T04:28:51.429Z,15.20
2019-02-23T04:30:26.136Z,12.47
2019-02-23T04:32:00.853Z,19.20
2019-02-23T04:33:35.990Z,15.00
2019-02-23T04:35:10.383Z,14.95
2019-02-23T04:36:44.775Z,16.42
2019-02-23T04:38:19.417Z,15.28
2019-02-23T04:39:53.783Z,14.60
2019-02-23T04:41:28.564Z,18.32
2019-02-23T04:43:03.294Z,16.23
2019-02-23T04:44:38.008Z,15.43
2019-02-23T04:46:12.393Z,19.07
2019-02-23T04:47:46.849Z,15.25
2019-02-23T04:49:21.558Z,15.30
2019-02-23T04:50:55.926Z,16.45
2019-02-23T04:52:30.587Z,16.15
2019-02-23T04:54:05.323Z,17.80
2019-02-23T04:55:40.129Z,16.65
2019-02-23T04:57:14.750Z,16.73
2019-02-23T04:58:49.117Z,14.35
2019-02-23T05:00:23.510Z,15.88
2019-02-23T05:01:57.919Z,17.40
2019-02-23T05:03:32.288Z,16.15
2019-02-23T05:05:07.975Z,16.45
2019-02-23T05:06:42.401Z,15.45
2019-02-23T05:08:16.835Z,16.75
2019-02-23T05:09:51.271Z,15.72
2019-02-23T05:11:25.731Z,19.98
2019-02-23T05:13:00.249Z,16.25
2019-02-23T05:14:35.151Z,19.42
2019-02-23T05:16:09.497Z,18.23
2019-02-23T05:17:44.363Z,17.75
2019-02-23T05:19:18.818Z,19.52
2019-02-23T05:20:53.217Z,15.93
2019-02-23T05:22:27.851Z,16.45
2019-02-23T05:24:02.496Z,14.33
2019-02-23T05:25:36.860Z,16.10
2019-02-23T05:27:11.934Z,17.80
2019-02-23T05:28:46.767Z,17.40
2019-02-23T05:30:21.838Z,16.25
2019-02-23T05:31:56.762Z,17.77
2019-02-23T05:33:31.123Z,16.50
2019-02-23T05:35:09.212Z,16.93
2019-02-23T05:36:43.581Z,15.83
2019-02-23T05:38:18.666Z,16.45
2019-02-23T05:39:53.034Z,16.50
2019-02-23T05:41:27.568Z,15.55
2019-02-23T05:43:02.682Z,15.70
2019-02-23T05:44:37.057Z,15.43
2019-02-23T05:46:12.014Z,15.93
2019-02-23T05:47:46.389Z,17.70
2019-02-23T05:49:20.769Z,16.02
2019-02-23T05:50:55.162Z,16.65
2019-02-23T05:52:29.767Z,15.60
2019-02-23T05:54:04.803Z,20.30
2019-02-23T05:55:39.161Z,18.37
2019-02-23T05:57:13.549Z,16.23
2019-02-23T05:58:48.549Z,20.05
2019-02-23T06:00:22.990Z,14.98
2019-02-23T06:01:57.374Z,19.07
2019-02-23T06:03:31.911Z,19.07
2019-02-23T06:05:06.625Z,18.15
2019-02-23T06:06:41.548Z,19.55
2019-02-23T06:08:16.110Z,18.52
2019-02-23T06:09:50.579Z,18.35
2019-02-23T06:11:24.934Z,17.42
2019-02-23T06:12:59.320Z,16.97
2019-02-23T06:14:33.915Z,16.62
2019-02-23T06:16:08.329Z,17.52
2019-02-23T06:17:42.693Z,16.82
2019-02-23T06:19:17.301Z,20.32
2019-02-23T06:20:52.111Z,15.70
2019-02-23T06:22:26.725Z,19.00
2019-02-23T06:24:01.105Z,22.37
2019-02-23T06:25:35.987Z,19.40
2019-02-23T06:27:10.486Z,18.42
2019-02-23T06:28:45.226Z,20.08
2019-02-23T06:30:19.690Z,18.52
2019-02-23T06:31:54.066Z,18.17
2019-02-23T06:33:29.134Z,17.25
2019-02-23T06:35:03.594Z,18.20
2019-02-23T06:36:38.226Z,21.85
2019-02-23T06:38:12.605Z,17.87
2019-02-23T06:39:47.267Z,19.27
2019-02-23T06:41:21.879Z,17.25
2019-02-23T06:42:57.928Z,17.42
2019-02-23T06:44:32.778Z,18.00
2019-02-23T06:46:07.278Z,16.17
2019-02-23T06:47:41.649Z,15.75
2019-02-23T06:49:16.209Z,17.92
2019-02-23T06:50:51.192Z,15.58
2019-02-23T06:52:25.872Z,16.20
2019-02-23T06:54:00.414Z,15.18
2019-02-23T06:55:35.157Z,15.32
2019-02-23T06:57:09.559Z,18.95
2019-02-23T06:58:44.073Z,17.55
2019-02-23T07:00:18.589Z,17.95
2019-02-23T07:01:53.385Z,18.12
2019-02-23T07:03:27.814Z,17.00
2019-02-23T07:05:02.516Z,17.27
2019-02-23T07:06:36.954Z,16.82
2019-02-23T07:08:11.329Z,15.13
2019-02-23T07:09:46.173Z,14.10
2019-02-23T07:11:20.636Z,15.13
2019-02-23T07:12:55.366Z,14.68
2019-02-23T07:14:29.862Z,14.30
2019-02-23T07:16:04.262Z,16.77
2019-02-23T07:17:38.977Z,15.20
2019-02-23T07:19:13.855Z,15.38
2019-02-23T07:20:48.229Z,13.45
2019-02-23T07:22:22.586Z,14.25
2019-02-23T07:23:57.548Z,14.45
2019-02-23T07:25:31.906Z,17.02
2019-02-23T07:27:06.408Z,14.33
2019-02-23T07:28:41.181Z,17.27
2019-02-23T07:30:15.683Z,15.28
2019-02-23T07:31:50.158Z,12.30
2019-02-23T07:33:32.835Z,14.30
2019-02-23T07:35:00.649Z,15.72
2019-02-23T07:36:35.327Z,13.30
2019-02-23T07:38:09.686Z,14.23
2019-02-23T07:39:44.356Z,13.93
2019-02-23T07:41:18.757Z,13.72
2019-02-23T07:42:53.385Z,17.20
2019-02-23T07:44:27.762Z,15.55
2019-02-23T07:46:02.133Z,18.37
2019-02-23T07:47:37.182Z,15.08
2019-02-23T07:49:11.974Z,14.93
2019-02-23T07:50:46.767Z,14.03
2019-02-23T07:52:26.313Z,15.00
2019-02-23T07:53:58.583Z,12.45
2019-02-23T07:55:33.369Z,13.60
2019-02-23T07:57:08.188Z,14.43
2019-02-23T07:58:43.716Z,17.87
2019-02-23T08:00:18.488Z,15.83
2019-02-23T08:01:53.269Z,13.65
2019-02-23T08:03:28.562Z,14.28
2019-02-23T08:05:03.782Z,13.03
2019-02-23T08:06:38.573Z,18.37
2019-02-23T08:08:12.966Z,16.32
2019-02-23T08:09:47.349Z,15.98
2019-02-23T08:11:21.986Z,16.87
2019-02-23T08:12:56.456Z,16.85
2019-02-23T08:14:30.813Z,16.55
2019-02-23T08:16:05.280Z,17.70
2019-02-23T08:17:39.908Z,16.27
2019-02-23T08:19:14.318Z,16.37
2019-02-23T08:20:48.682Z,17.75
2019-02-23T08:22:23.171Z,19.48
2019-02-23T08:23:58.245Z,15.80
2019-02-23T08:25:32.629Z,15.68
2019-02-23T08:27:07.485Z,17.67
2019-02-23T08:28:41.871Z,19.07
2019-02-23T08:30:16.329Z,15.60
2019-02-23T08:31:51.261Z,14.47
2019-02-23T08:33:25.889Z,17.07
2019-02-23T08:35:00.415Z,14.87
2019-02-23T08:36:35.318Z,17.23
2019-02-23T08:38:10.361Z,15.32
2019-02-23T08:39:44.991Z,19.42
2019-02-23T08:41:19.631Z,14.50
2019-02-23T08:42:54.234Z,19.35
2019-02-23T08:44:28.947Z,17.55
2019-02-23T08:46:03.815Z,16.02
2019-02-23T08:47:38.290Z,16.10
2019-02-23T08:49:12.686Z,14.15
2019-02-23T08:50:47.089Z,15.95
2019-02-23T08:52:21.486Z,15.10
2019-02-23T08:53:56.153Z,16.60
2019-02-23T08:55:30.501Z,17.12
2019-02-23T08:57:05.446Z,16.80
2019-02-23T08:58:40.060Z,14.87
2019-02-23T09:00:15.759Z,14.87
2019-02-23T09:01:50.970Z,15.63
2019-02-23T09:03:25.806Z,15.53
2019-02-23T09:05:00.422Z,16.50
2019-02-23T09:06:34.818Z,13.20
2019-02-23T09:08:09.201Z,14.98
2019-02-23T09:09:43.748Z,13.90
2019-02-23T09:11:18.366Z,13.93
2019-02-23T09:12:52.906Z,13.35
2019-02-23T09:14:27.539Z,12.37
2019-02-23T09:16:01.914Z,14.85
2019-02-23T09:17:36.706Z,13.43
2019-02-23T09:19:11.174Z,14.73
2019-02-23T09:20:46.254Z,12.33
2019-02-23T09:22:21.075Z,14.00
2019-02-23T09:23:55.439Z,14.58
2019-02-23T09:25:30.066Z,13.72
2019-02-23T09:27:04.803Z,12.43
2019-02-23T09:28:39.168Z,15.08
2019-02-23T09:30:14.054Z,13.13
2019-02-23T09:31:48.840Z,14.83
2019-02-23T09:33:23.333Z,12.47
2019-02-23T09:34:57.681Z,14.78
2019-02-23T09:36:32.383Z,12.68
2019-02-23T09:38:07.277Z,12.90
2019-02-23T09:39:41.627Z,13.22
2019-02-23T09:41:15.986Z,11.65
2019-02-23T09:42:50.699Z,10.45
2019-02-23T09:44:25.132Z,12.73
2019-02-23T09:45:59.527Z,12.88
2019-02-23T09:47:33.965Z,10.20
2019-02-23T09:49:08.334Z,14.00
2019-02-23T09:50:42.952Z,11.08
2019-02-23T09:52:17.583Z,11.33
2019-02-23T09:53:52.179Z,10.90
2019-02-23T09:55:26.546Z,14.47
2019-02-23T09:57:00.898Z,12.10
2019-02-23T09:58:35.291Z,11.95
2019-02-23T10:00:10.541Z,11.45
2019-02-23T10:01:44.918Z,13.48
2019-02-23T10:03:19.325Z,11.30
2019-02-23T10:04:54.234Z,12.05
2019-02-23T10:06:28.602Z,11.22
2019-02-23T10:08:03.450Z,10.95
2019-02-23T10:09:38.416Z,12.50
2019-02-23T10:11:13.065Z,11.38
2019-02-23T10:12:49.225Z,11.83
2019-02-23T10:14:23.914Z,9.75
2019-02-23T10:15:58.277Z,10.90
2019-02-23T10:17:35.678Z,10.35
2019-02-23T10:19:10.544Z,10.80
2019-02-23T10:20:45.163Z,9.00
2019-02-23T10:22:19.670Z,11.03
2019-02-23T10:23:54.313Z,10.95
2019-02-23T10:25:29.086Z,9.75
2019-02-23T10:27:03.966Z,10.58
2019-02-23T10:28:38.371Z,9.40
2019-02-23T10:30:13.214Z,10.90
2019-02-23T10:31:47.571Z,8.50
2019-02-23T10:33:22.107Z,9.30
2019-02-23T10:34:57.100Z,9.08
2019-02-23T10:36:31.718Z,9.48
2019-02-23T10:38:06.535Z,7.95
2019-02-23T10:39:41.367Z,7.45
2019-02-23T10:41:15.739Z,8.33
2019-02-23T10:42:53.462Z,10.45
2019-02-23T10:44:28.108Z,8.48
2019-02-23T10:46:02.926Z,7.58
2019-02-23T10:47:37.996Z,8.18
2019-02-23T10:49:13.153Z,8.38
2019-02-23T10:50:48.175Z,6.90
2019-02-23T10:52:23.191Z,7.17
2019-02-23T10:53:57.975Z,7.50
2019-02-23T10:55:33.025Z,6.15
2019-02-23T10:57:08.146Z,6.28
2019-02-23T10:58:43.252Z,4.00
2019-02-23T11:00:20.494Z,4.33
2019-02-23T11:01:55.592Z,7.12
2019-02-23T11:03:31.432Z,5.65
2019-02-23T11:05:07.487Z,6.10
2019-02-23T11:06:42.350Z,6.42
2019-02-23T11:08:20.814Z,5.90
2019-02-23T11:09:55.779Z,6.65
2019-02-23T11:11:30.710Z,6.87
2019-02-23T11:13:05.637Z,6.17
2019-02-23T11:14:40.447Z,5.35
2019-02-23T11:16:15.981Z,5.72
2019-02-23T11:17:50.780Z,6.35
2019-02-23T11:19:25.827Z,6.28
2019-02-23T11:21:00.613Z,3.90
2019-02-23T11:22:35.364Z,4.53
2019-02-23T11:24:10.814Z,5.53
2019-02-23T11:25:45.805Z,4.77
2019-02-23T11:27:20.580Z,4.20
2019-02-23T11:28:55.452Z,3.50
2019-02-23T11:30:30.388Z,3.67
2019-02-23T11:32:05.428Z,3.87
2019-02-23T11:33:40.474Z,4.40
2019-02-23T11:35:17.509Z,6.50
2019-02-23T11:36:52.337Z,4.53
2019-02-23T11:38:27.649Z,4.10
2019-02-23T11:40:02.485Z,3.77
2019-02-23T11:41:37.296Z,4.65
2019-02-23T11:43:12.035Z,4.60
2019-02-23T11:44:46.644Z,5.22
2019-02-23T11:46:21.400Z,5.12
2019-02-23T11:47:56.454Z,4.75
2019-02-23T11:49:31.722Z,4.40
2019-02-23T11:51:06.493Z,5.25
2019-02-23T11:52:42.741Z,5.53
2019-02-23T11:54:17.539Z,5.28
2019-02-23T11:55:52.566Z,4.70
2019-02-23T11:57:27.846Z,5.53
2019-02-23T11:59:02.650Z,4.30
2019-02-23T12:00:37.579Z,5.58
2019-02-23T12:02:12.389Z,6.08
2019-02-23T12:03:47.672Z,5.85
2019-02-23T12:05:22.833Z,7.12
2019-02-23T12:06:58.113Z,4.97
2019-02-23T12:08:33.133Z,4.80
2019-02-23T12:10:10.650Z,5.12
2019-02-23T12:11:45.471Z,6.20
2019-02-23T12:13:21.004Z,5.87
2019-02-23T12:14:57.229Z,4.97
2019-02-23T12:16:32.250Z,5.47
2019-02-23T12:18:07.337Z,6.17
2019-02-23T12:19:42.441Z,5.67
2019-02-23T12:21:17.229Z,5.78
2019-02-23T12:22:52.020Z,6.00
2019-02-23T12:24:27.084Z,5.87
2019-02-23T12:26:01.903Z,5.87
2019-02-23T12:27:36.685Z,5.80
2019-02-23T12:29:11.504Z,7.03
2019-02-23T12:30:46.541Z,5.42
2019-02-23T12:32:21.600Z,6.97
2019-02-23T12:33:56.648Z,6.65
2019-02-23T12:35:31.802Z,6.08
2019-02-23T12:37:07.073Z,5.10
2019-02-23T12:38:41.864Z,4.28
2019-02-23T12:40:16.647Z,6.28
2019-02-23T12:41:51.496Z,6.83
2019-02-23T12:43:26.306Z,5.85
2019-02-23T12:45:01.326Z,6.05
2019-02-23T12:46:36.597Z,6.15
2019-02-23T12:48:11.426Z,5.60
2019-02-23T12:49:46.221Z,6.87
2019-02-23T12:51:21.014Z,6.55
2019-02-23T12:52:56.076Z,6.03
2019-02-23T12:54:30.898Z,5.78
2019-02-23T12:56:05.685Z,6.42
2019-02-23T12:57:40.541Z,8.53
2019-02-23T12:59:15.290Z,6.92
2019-02-23T13:00:50.112Z,6.17
2019-02-23T13:02:24.938Z,7.65
2019-02-23T13:04:00.015Z,6.95
2019-02-23T13:05:35.051Z,8.10
2019-02-23T13:07:10.148Z,8.45
2019-02-23T13:09:14.811Z,7.67
2019-02-23T13:10:54.439Z,6.75
2019-02-23T13:12:56.796Z,9.43
2019-02-23T13:15:22.048Z,8.28
2019-02-23T13:17:37.075Z,8.55
2019-02-23T13:20:17.539Z,9.38
2019-02-23T13:22:14.661Z,6.70
2019-02-23T13:24:45.337Z,6.67
2019-02-23T13:27:10.985Z,6.00
2019-02-23T13:29:41.166Z,7.97
2019-02-23T13:32:07.201Z,8.85
2019-02-23T13:35:07.911Z,7.60
2019-02-23T13:37:50.738Z,7.75
2019-02-23T13:39:59.851Z,8.05
2019-02-23T13:42:41.345Z,8.35
2019-02-23T13:44:38.338Z,7.95
2019-02-23T13:46:44.021Z,8.20
2019-02-23T13:48:43.836Z,8.53
2019-02-23T13:51:09.630Z,8.40
2019-02-23T13:53:55.590Z,7.83
2019-02-23T13:56:32.466Z,9.80
2019-02-23T13:58:37.616Z,9.85
2019-02-23T14:00:54.784Z,8.28
2019-02-23T14:03:46.513Z,8.63
2019-02-23T14:05:52.699Z,11.10
2019-02-23T14:08:46.673Z,9.65
2019-02-23T14:11:19.375Z,10.35
2019-02-23T14:13:40.233Z,9.60
2019-02-23T14:16:14.825Z,9.98
2019-02-23T14:18:48.107Z,10.13
2019-02-23T14:21:14.100Z,10.65
2019-02-23T14:23:26.737Z,11.15
2019-02-23T14:25:49.262Z,9.73
2019-02-23T14:28:38.653Z,12.00
2019-02-23T14:31:01.713Z,12.37
2019-02-23T14:33:12.960Z,11.45
2019-02-23T14:35:14.188Z,16.35
2019-02-23T14:37:13.298Z,11.55
2019-02-23T14:39:42.326Z,14.53
2019-02-23T14:41:54.237Z,11.45
2019-02-23T14:43:59.668Z,10.25
2019-02-23T14:45:55.266Z,11.10
2019-02-23T14:48:01.174Z,12.47
2019-02-23T14:49:58.851Z,15.80
2019-02-23T14:52:11.745Z,11.70
2019-02-23T14:54:22.634Z,11.70
2019-02-23T14:56:26.141Z,10.53
2019-02-23T14:58:37.579Z,15.10
2019-02-23T15:00:35.620Z,11.73
2019-02-23T15:02:41.442Z,12.00
2019-02-23T15:04:57.533Z,11.40
2019-02-23T15:06:54.173Z,11.40
2019-02-23T15:09:19.150Z,10.13
2019-02-23T15:11:22.065Z,12.47
2019-02-23T15:13:22.743Z,13.45
2019-02-23T15:15:25.951Z,13.35
2019-02-23T15:17:32.943Z,12.78
2019-02-23T15:19:39.577Z,12.18
2019-02-23T15:21:40.367Z,12.18
2019-02-23T15:23:50.949Z,11.78
2019-02-23T15:26:00.665Z,11.28
2019-02-23T15:28:06.942Z,14.20
2019-02-23T15:30:14.934Z,11.55
2019-02-23T15:32:55.427Z,11.38
2019-02-23T15:35:09.641Z,14.13
2019-02-23T15:37:19.040Z,10.98
2019-02-23T15:39:44.888Z,13.50
2019-02-23T15:42:04.274Z,11.53
2019-02-23T15:44:01.703Z,11.80
2019-02-23T15:46:29.992Z,16.37
2019-02-23T15:48:48.152Z,11.97
2019-02-23T15:50:22.685Z,13.10
2019-02-23T15:51:57.223Z,14.05
2019-02-23T15:53:31.621Z,14.45
2019-02-23T15:55:06.102Z,15.00
2019-02-23T15:56:40.461Z,13.03
2019-02-23T15:58:14.820Z,12.30
2019-02-23T15:59:49.259Z,13.88
2019-02-23T16:01:23.907Z,12.13
2019-02-23T16:02:58.271Z,15.45
2019-02-23T16:04:32.861Z,14.23
2019-02-23T16:06:07.596Z,14.10
2019-02-23T16:07:42.056Z,15.28
2019-02-23T16:09:16.774Z,13.13
2019-02-23T16:10:51.510Z,14.03
2019-02-23T16:12:26.211Z,13.58
2019-02-23T16:14:01.145Z,13.13
2019-02-23T16:15:36.061Z,15.30
2019-02-23T16:17:11.033Z,11.73
2019-02-23T16:18:45.836Z,13.70
2019-02-23T16:20:21.108Z,13.95
2019-02-23T16:21:56.050Z,15.95
2019-02-23T16:23:35.401Z,16.75
2019-02-23T16:25:08.106Z,13.98
2019-02-23T16:26:42.962Z,14.33
2019-02-23T16:28:18.007Z,16.02
2019-02-23T16:29:52.815Z,13.83
2019-02-23T16:31:27.837Z,13.60
2019-02-23T16:33:02.915Z,13.48
2019-02-23T16:34:38.024Z,16.02
2019-02-23T16:36:12.907Z,14.35
2019-02-23T16:37:47.564Z,14.73
2019-02-23T16:39:21.989Z,15.50
2019-02-23T16:40:56.494Z,15.55
2019-02-23T16:42:31.347Z,14.38
2019-02-23T16:44:05.737Z,18.45
2019-02-23T16:45:40.254Z,14.38
2019-02-23T16:47:15.117Z,16.70
2019-02-23T16:48:49.485Z,14.35
2019-02-23T16:50:24.106Z,16.17
2019-02-23T16:51:58.731Z,13.60
2019-02-23T16:53:33.409Z,17.40
2019-02-23T16:55:07.971Z,14.98
2019-02-23T16:56:42.743Z,16.02
2019-02-23T16:58:17.577Z,17.70
2019-02-23T16:59:52.349Z,13.25
2019-02-23T17:01:27.185Z,15.13
2019-02-23T17:03:01.634Z,18.45
2019-02-23T17:04:36.325Z,19.73
2019-02-23T17:06:11.336Z,18.27
2019-02-23T17:07:46.359Z,15.48
2019-02-23T17:09:21.685Z,14.38
2019-02-23T17:10:56.466Z,16.55
2019-02-23T17:12:31.539Z,15.00
2019-02-23T17:14:06.578Z,14.58
2019-02-23T17:15:41.404Z,17.52
2019-02-23T17:17:16.207Z,14.63
2019-02-23T17:18:51.054Z,14.55
2019-02-23T17:20:25.902Z,12.93
2019-02-23T17:22:00.735Z,13.65
2019-02-23T17:23:35.582Z,14.07
2019-02-23T17:25:10.808Z,17.52
2019-02-23T17:26:45.620Z,14.93
2019-02-23T17:28:20.660Z,12.55
2019-02-23T17:29:55.477Z,15.80
2019-02-23T17:31:30.508Z,17.73
2019-02-23T17:33:05.309Z,14.60
2019-02-23T17:34:40.357Z,18.23
2019-02-23T17:36:15.212Z,16.25
2019-02-23T17:37:50.371Z,13.55
2019-02-23T17:39:25.396Z,15.85
2019-02-23T17:41:00.476Z,15.28
2019-02-23T17:42:35.291Z,16.17
2019-02-23T17:44:10.071Z,15.10
2019-02-23T17:45:44.861Z,14.63
2019-02-23T17:47:19.892Z,13.95
2019-02-23T17:48:54.931Z,13.13
2019-02-23T17:50:29.734Z,16.57
2019-02-23T17:52:04.802Z,19.95
2019-02-23T17:53:39.693Z,18.77
2019-02-23T17:55:14.507Z,19.23
2019-02-23T17:56:49.303Z,19.48
2019-02-23T17:58:24.130Z,19.07
2019-02-23T17:59:58.948Z,18.62
2019-02-23T18:01:33.371Z,13.83
2019-02-23T18:03:08.038Z,20.12
2019-02-23T18:04:42.657Z,16.40
2019-02-23T18:06:17.113Z,17.67
2019-02-23T18:07:51.738Z,17.15
2019-02-23T18:09:26.152Z,17.17
2019-02-23T18:11:00.626Z,16.48
2019-02-23T18:12:35.073Z,16.35
2019-02-23T18:14:09.453Z,17.62
2019-02-23T18:15:43.866Z,17.50
2019-02-23T18:17:18.914Z,19.80
2019-02-23T18:18:53.274Z,18.48
2019-02-23T18:20:27.768Z,23.07
2019-02-23T18:22:02.621Z,21.73
2019-02-23T18:23:37.517Z,19.32
2019-02-23T18:25:12.142Z,24.50
2019-02-23T18:26:46.738Z,18.62
2019-02-23T18:28:21.397Z,21.55
2019-02-23T18:29:56.036Z,20.75
2019-02-23T18:31:30.409Z,20.25
2019-02-23T18:33:04.916Z,21.95
2019-02-23T18:34:39.638Z,26.42
2019-02-23T18:36:14.121Z,21.77
2019-02-23T18:37:49.023Z,24.05
2019-02-23T18:39:23.523Z,25.02
2019-02-23T18:40:57.908Z,25.05
2019-02-23T18:42:32.655Z,24.40
2019-02-23T18:44:07.021Z,28.38
2019-02-23T18:45:47.238Z,25.77
2019-02-23T18:47:17.561Z,26.05
2019-02-23T18:48:52.354Z,22.67
2019-02-23T18:50:27.278Z,24.27
2019-02-23T18:52:01.990Z,23.65
2019-02-23T18:53:36.350Z,23.40
2019-02-23T18:55:11.193Z,25.30
2019-02-23T18:56:45.606Z,23.45
2019-02-23T18:58:21.134Z,22.90
2019-02-23T18:59:55.531Z,24.65
2019-02-23T19:01:30.406Z,24.60
2019-02-23T19:03:04.913Z,21.57
2019-02-23T19:04:39.318Z,24.92
2019-02-23T19:06:13.965Z,23.12
2019-02-23T19:07:48.361Z,20.40
2019-02-23T19:09:22.776Z,21.73
2019-02-23T19:10:57.412Z,23.60
2019-02-23T19:12:31.909Z,19.95
2019-02-23T19:14:06.324Z,23.27
2019-02-23T19:15:40.758Z,22.55
2019-02-23T19:17:15.630Z,21.42
2019-02-23T19:18:50.254Z,22.17
2019-02-23T19:20:24.735Z,19.90
2019-02-23T19:21:59.201Z,19.55
2019-02-23T19:23:34.242Z,19.25
2019-02-23T19:25:09.870Z,17.12
2019-02-23T19:26:44.529Z,20.23
2019-02-23T19:28:18.919Z,20.57
2019-02-23T19:29:53.293Z,18.50
2019-02-23T19:31:27.969Z,21.48
2019-02-23T19:33:02.622Z,24.52
2019-02-23T19:34:37.103Z,23.30
2019-02-23T19:36:11.778Z,23.80
2019-02-23T19:37:46.381Z,20.92
2019-02-23T19:39:21.095Z,23.02
2019-02-23T19:40:55.470Z,25.95
2019-02-23T19:42:30.141Z,20.43
2019-02-23T19:44:05.165Z,21.93
2019-02-23T19:45:39.617Z,22.52
2019-02-23T19:47:16.824Z,24.18
2019-02-23T19:48:51.462Z,24.05
2019-02-23T19:50:32.430Z,18.85
2019-02-23T19:52:07.473Z,22.95
2019-02-23T19:53:42.138Z,22.85
2019-02-23T19:55:16.821Z,20.88
2019-02-23T19:56:51.484Z,21.27
2019-02-23T19:58:26.697Z,20.57
2019-02-23T20:00:01.158Z,20.72
2019-02-23T20:01:35.535Z,21.27
2019-02-23T20:03:10.624Z,20.37
2019-02-23T20:04:44.988Z,19.05
2019-02-23T20:06:19.384Z,22.95
2019-02-23T20:07:53.753Z,20.65
2019-02-23T20:09:28.381Z,23.42
2019-02-23T20:11:03.106Z,21.12
2019-02-23T20:12:37.833Z,22.25
2019-02-23T20:14:12.217Z,20.48
2019-02-23T20:15:47.061Z,22.60
2019-02-23T20:17:21.517Z,21.23
2019-02-23T20:18:56.303Z,23.12
2019-02-23T20:20:31.262Z,20.68
2019-02-23T20:22:06.043Z,22.45
2019-02-23T20:23:40.915Z,21.82
2019-02-23T20:25:15.639Z,21.07
2019-02-23T20:26:55.705Z,23.30
2019-02-23T20:28:26.594Z,19.27
2019-02-23T20:30:01.197Z,20.80
2019-02-23T20:31:36.163Z,21.37
2019-02-23T20:33:10.767Z,19.95
2019-02-23T20:34:45.569Z,19.42
2019-02-23T20:36:20.376Z,19.67
2019-02-23T20:37:55.478Z,20.50
2019-02-23T20:39:30.294Z,22.05
2019-02-23T20:41:05.665Z,20.27
2019-02-23T20:42:40.165Z,19.25
2019-02-23T20:44:14.730Z,20.15
2019-02-23T20:45:49.438Z,20.00
2019-02-23T20:47:24.042Z,19.07
2019-02-23T20:48:58.663Z,19.30
2019-02-23T20:50:33.883Z,22.20
2019-02-23T20:52:08.733Z,20.30
2019-02-23T20:53:43.377Z,19.37
2019-02-23T20:55:18.060Z,22.60
2019-02-23T20:56:53.287Z,17.80
2019-02-23T20:58:28.331Z,18.98
2019-02-23T21:00:03.174Z,18.50
2019-02-23T21:01:38.195Z,19.12
2019-02-23T21:03:13.318Z,22.13
2019-02-23T21:04:48.099Z,20.45
2019-02-23T21:06:22.801Z,22.30
2019-02-23T21:07:57.266Z,23.40
2019-02-23T21:09:31.736Z,22.80
2019-02-23T21:11:07.025Z,23.77
2019-02-23T21:12:41.793Z,18.77
2019-02-23T21:14:16.869Z,20.45
2019-02-23T21:15:51.900Z,20.70